createdAt,value
2022-08-05T00:01:27.972Z,27.50
2022-08-05T00:03:57.234Z,27.50
2022-08-05T00:06:32.462Z,27.52
2022-08-05T00:09:00.630Z,27.50
2022-08-05T00:11:30.516Z,27.49
2022-08-05T00:14:02.395Z,27.50
2022-08-05T00:16:53.740Z,27.49
2022-08-05T00:19:24.975Z,27.49
2022-08-05T00:21:59.697Z,27.49
2022-08-05T00:24:31.041Z,27.49
2022-08-05T00:26:58.834Z,27.50
2022-08-05T00:29:26.080Z,27.48
2022-08-05T00:32:13.109Z,27.49
2022-08-05T00:35:03.547Z,27.49
2022-08-05T00:37:35.414Z,27.48
2022-08-05T00:40:17.861Z,27.48
2022-08-05T00:42:54.347Z,27.47
2022-08-05T00:45:25.035Z,27.48
2022-08-05T00:48:06.925Z,27.47
2022-08-05T00:50:34.190Z,27.48
2022-08-05T00:53:00.888Z,27.47
2022-08-05T00:55:42.376Z,27.47
2022-08-05T00:58:11.526Z,27.48
2022-08-05T01:00:38.382Z,27.48
2022-08-05T01:03:07.953Z,27.46
2022-08-05T01:05:35.016Z,27.46
2022-08-05T01:08:41.774Z,27.46
2022-08-05T01:10:54.340Z,27.46
2022-08-05T01:13:27.429Z,27.46
2022-08-05T01:16:14.745Z,27.46
2022-08-05T01:18:56.142Z,27.46
2022-08-05T01:21:50.691Z,27.47
2022-08-05T01:24:35.918Z,27.45
2022-08-05T01:27:19.162Z,27.46
2022-08-05T01:29:47.431Z,27.46
2022-08-05T01:32:18.432Z,27.45
2022-08-05T01:35:51.697Z,27.43
2022-08-05T01:38:09.067Z,27.44
2022-08-05T01:40:51.921Z,27.44
2022-08-05T01:43:22.218Z,27.43
2022-08-05T01:45:56.599Z,27.44
2022-08-05T01:48:25.347Z,27.43
2022-08-05T01:50:52.039Z,27.44
2022-08-05T01:53:54.548Z,27.43
2022-08-05T01:56:06.084Z,27.42
2022-08-05T01:58:45.256Z,27.43
2022-08-05T02:01:13.313Z,27.41
2022-08-05T02:03:43.577Z,27.44
2022-08-05T02:06:37.008Z,27.40
2022-08-05T02:08:58.857Z,27.40
2022-08-05T02:11:33.382Z,27.41
2022-08-05T02:14:12.366Z,27.41
2022-08-05T02:16:46.849Z,27.40
2022-08-05T02:19:24.952Z,27.40
2022-08-05T02:22:26.628Z,27.39
2022-08-05T02:25:00.077Z,27.40
2022-08-05T02:27:29.970Z,27.40
2022-08-05T02:30:13.900Z,27.40
2022-08-05T02:32:40.550Z,27.39
2022-08-05T02:35:14.068Z,27.39
2022-08-05T02:37:41.956Z,27.41
2022-08-05T02:40:09.599Z,27.36
2022-08-05T02:42:36.907Z,27.38
2022-08-05T02:45:03.878Z,27.38
2022-08-05T02:47:36.553Z,27.37
2022-08-05T02:50:18.195Z,27.37
2022-08-05T02:52:44.963Z,27.37
2022-08-05T02:55:12.452Z,27.38
2022-08-05T02:58:10.735Z,27.35
2022-08-05T03:00:26.957Z,27.34
2022-08-05T03:02:53.735Z,27.37
2022-08-05T03:05:21.935Z,27.35
2022-08-05T03:08:08.761Z,27.35
2022-08-05T03:10:36.369Z,27.37
2022-08-05T03:15:31.633Z,27.35
2022-08-05T03:18:00.586Z,27.35
2022-08-05T03:20:27.243Z,27.35
2022-08-05T03:22:55.349Z,27.35
2022-08-05T03:25:33.508Z,27.35
2022-08-05T03:28:14.089Z,27.34
2022-08-05T03:30:41.095Z,27.35
2022-08-05T03:33:08.873Z,27.35
2022-08-05T03:35:41.070Z,27.34
2022-08-05T03:38:10.551Z,27.35
2022-08-05T03:40:40.809Z,27.35
2022-08-05T03:43:58.760Z,27.35
2022-08-05T03:45:57.255Z,27.34
2022-08-05T03:48:27.406Z,27.34
2022-08-05T03:52:35.090Z,27.35
2022-08-05T03:55:52.021Z,27.34
2022-08-05T03:56:54.328Z,27.36
2022-08-05T03:59:47.596Z,27.37
2022-08-05T04:02:37.723Z,27.39
2022-08-05T04:05:09.664Z,27.45
2022-08-05T04:07:37.015Z,27.49
2022-08-05T04:10:23.611Z,27.54
2022-08-05T04:12:54.245Z,27.58
2022-08-05T04:15:24.447Z,27.62
2022-08-05T04:17:57.361Z,27.63
2022-08-05T04:20:29.015Z,27.66
2022-08-05T04:22:55.616Z,27.70
2022-08-05T04:25:24.269Z,27.72
2022-08-05T04:28:11.292Z,27.76
2022-08-05T04:30:39.465Z,27.77
2022-08-05T04:33:06.351Z,27.79
2022-08-05T04:36:11.382Z,27.81
2022-08-05T04:38:20.953Z,27.82
2022-08-05T04:40:50.779Z,27.83
2022-08-05T04:43:17.772Z,27.84
2022-08-05T04:45:55.003Z,27.85
2022-08-05T04:48:27.501Z,27.87
2022-08-05T04:51:02.051Z,27.87
2022-08-05T04:53:33.540Z,27.88
2022-08-05T04:56:15.064Z,27.90
2022-08-05T04:58:48.821Z,27.91
2022-08-05T05:01:15.762Z,27.93
2022-08-05T05:04:02.311Z,27.95
2022-08-05T05:06:39.069Z,27.97
2022-08-05T05:09:16.896Z,27.98
2022-08-05T05:11:54.102Z,28.00
2022-08-05T05:14:28.215Z,28.03
2022-08-05T05:16:59.851Z,28.04
2022-08-05T05:19:36.341Z,28.06
2022-08-05T05:22:23.153Z,28.07
2022-08-05T05:24:57.842Z,28.09
2022-08-05T05:27:44.730Z,28.12
2022-08-05T05:30:30.825Z,28.13
2022-08-05T05:33:03.828Z,28.16
2022-08-05T05:35:42.538Z,28.18
2022-08-05T05:38:13.390Z,28.21
2022-08-05T05:40:49.772Z,28.23
2022-08-05T05:43:51.474Z,28.25
2022-08-05T05:46:17.520Z,28.27
2022-08-05T05:48:47.722Z,28.29
2022-08-05T05:51:21.963Z,28.30
2022-08-05T05:53:57.828Z,28.30
2022-08-05T05:56:32.347Z,28.34
2022-08-05T05:59:03.494Z,28.34
2022-08-05T06:01:37.447Z,28.37
2022-08-05T06:04:05.612Z,28.38
2022-08-05T06:06:34.655Z,28.38
2022-08-05T06:09:04.294Z,28.39
2022-08-05T06:11:33.997Z,28.41
2022-08-05T06:14:01.178Z,28.41
2022-08-05T06:16:32.595Z,28.45
2022-08-05T06:19:01.118Z,28.47
2022-08-05T06:21:36.855Z,28.47
2022-08-05T06:24:11.721Z,28.46
2022-08-05T06:26:51.359Z,28.47
2022-08-05T06:29:24.993Z,28.47
2022-08-05T06:32:17.243Z,28.47
2022-08-05T06:34:53.630Z,28.48
2022-08-05T06:37:39.462Z,28.48
2022-08-05T06:40:13.036Z,28.48
2022-08-05T06:42:40.424Z,28.51
2022-08-05T06:45:08.302Z,28.52
2022-08-05T06:48:37.245Z,28.52
2022-08-05T06:50:22.405Z,28.53
2022-08-05T06:52:58.617Z,28.51
2022-08-05T06:55:30.311Z,28.52
2022-08-05T06:58:19.786Z,28.53
2022-08-05T07:00:50.052Z,28.52
2022-08-05T07:03:16.782Z,28.52
2022-08-05T07:05:43.759Z,28.52
2022-08-05T07:08:12.953Z,28.53
2022-08-05T07:10:52.345Z,28.54
2022-08-05T07:13:57.688Z,28.50
2022-08-05T07:17:59.044Z,28.49
2022-08-05T07:22:17.217Z,28.50
2022-08-05T07:24:53.606Z,28.51
2022-08-05T07:27:21.531Z,28.52
2022-08-05T07:30:28.171Z,28.48
2022-08-05T07:32:36.324Z,28.48
2022-08-05T07:36:04.202Z,28.47
2022-08-05T07:37:54.836Z,28.45
2022-08-05T07:40:26.659Z,28.45
2022-08-05T07:42:59.369Z,28.45
2022-08-05T07:45:57.164Z,28.44
2022-08-05T07:49:02.124Z,28.44
2022-08-05T07:51:05.658Z,28.41
2022-08-05T07:53:51.287Z,28.40
2022-08-05T07:56:38.998Z,28.37
2022-08-05T07:59:08.444Z,28.36
2022-08-05T08:01:35.433Z,28.33
2022-08-05T08:04:08.369Z,28.34
2022-08-05T08:06:37.514Z,28.33
2022-08-05T08:09:04.186Z,28.31
2022-08-05T08:11:49.500Z,28.30
2022-08-05T08:14:19.680Z,28.29
2022-08-05T08:16:51.379Z,28.28
2022-08-05T08:20:10.277Z,28.29
2022-08-05T08:22:07.618Z,28.27
2022-08-05T08:24:51.573Z,28.25
2022-08-05T08:27:18.776Z,28.23
2022-08-05T08:30:05.838Z,28.22
2022-08-05T08:32:34.515Z,28.22
2022-08-05T08:35:07.487Z,28.22
2022-08-05T08:37:40.568Z,28.20
2022-08-05T08:40:12.057Z,28.19
2022-08-05T08:42:50.273Z,28.19
2022-08-05T08:45:26.720Z,28.18
2022-08-05T08:48:07.319Z,28.18
2022-08-05T08:51:03.069Z,28.16
2022-08-05T08:53:27.979Z,28.16
2022-08-05T08:56:04.493Z,28.15
2022-08-05T08:58:43.644Z,28.14
2022-08-05T09:01:15.951Z,28.14
2022-08-05T09:03:45.169Z,28.13
2022-08-05T09:06:15.806Z,28.14
2022-08-05T09:08:47.234Z,28.13
2022-08-05T09:11:15.155Z,28.13
2022-08-05T09:14:09.885Z,28.12
2022-08-05T09:16:28.633Z,28.14
2022-08-05T09:18:55.945Z,28.11
2022-08-05T09:22:24.961Z,28.13
2022-08-05T09:24:15.405Z,28.12
2022-08-05T09:26:43.689Z,28.11
2022-08-05T09:29:10.976Z,28.11
2022-08-05T09:32:42.125Z,28.11
2022-08-05T09:34:53.344Z,28.12
2022-08-05T09:38:12.272Z,28.11
2022-08-05T09:40:36.460Z,28.11
2022-08-05T09:43:08.593Z,28.10
2022-08-05T09:46:07.915Z,28.10
2022-08-05T09:48:30.396Z,28.09
2022-08-05T09:50:59.106Z,28.09
2022-08-05T09:53:54.413Z,28.09
2022-08-05T09:56:14.131Z,28.10
2022-08-05T09:58:41.916Z,28.09
2022-08-05T10:01:15.120Z,28.08
2022-08-05T10:03:58.682Z,28.08
2022-08-05T10:06:27.805Z,28.08
2022-08-05T10:08:55.627Z,28.06
2022-08-05T10:11:22.831Z,28.07
2022-08-05T10:13:54.511Z,28.06
2022-08-05T10:16:37.730Z,28.07
2022-08-05T10:19:10.135Z,28.07
2022-08-05T10:21:40.457Z,28.07
2022-08-05T10:24:11.077Z,28.08
2022-08-05T10:26:51.415Z,28.08
2022-08-05T10:29:24.114Z,28.08
2022-08-05T10:33:02.201Z,28.06
2022-08-05T10:34:54.028Z,28.04
2022-08-05T10:37:23.490Z,28.05
2022-08-05T10:40:17.513Z,28.06
2022-08-05T10:42:45.221Z,28.05
2022-08-05T10:45:23.218Z,28.04
2022-08-05T10:48:31.877Z,28.05
2022-08-05T10:51:21.975Z,28.05
2022-08-05T10:54:01.774Z,28.04
2022-08-05T10:56:43.912Z,28.03
2022-08-05T11:00:01.311Z,28.02
2022-08-05T11:02:14.739Z,28.03
2022-08-05T11:04:56.023Z,28.02
2022-08-05T11:07:33.109Z,28.03
2022-08-05T11:10:21.597Z,28.03
2022-08-05T11:12:50.723Z,28.03
2022-08-05T11:15:21.724Z,28.03
2022-08-05T11:18:00.151Z,28.03
2022-08-05T11:20:34.562Z,28.03
2022-08-05T11:23:10.516Z,28.03
2022-08-05T11:26:05.418Z,28.04
2022-08-05T11:28:25.418Z,28.03
2022-08-05T11:30:58.537Z,28.02
2022-08-05T11:33:52.359Z,28.03
2022-08-05T11:36:34.286Z,28.03
2022-08-05T11:39:08.169Z,28.02
2022-08-05T11:42:01.462Z,28.03
2022-08-05T11:44:52.801Z,28.03
2022-08-05T11:47:22.207Z,28.04
2022-08-05T11:50:07.509Z,28.03
2022-08-05T11:52:34.250Z,28.03
2022-08-05T11:55:07.749Z,28.05
2022-08-05T11:57:39.325Z,28.02
2022-08-05T12:00:28.847Z,28.03
2022-08-05T12:02:56.591Z,28.03
2022-08-05T12:05:32.235Z,28.03
2022-08-05T12:08:09.810Z,28.03
2022-08-05T12:10:43.521Z,28.03
2022-08-05T12:13:17.485Z,28.04
2022-08-05T12:15:55.826Z,28.04
2022-08-05T12:18:33.148Z,28.05
2022-08-05T12:21:13.882Z,28.04
2022-08-05T12:23:58.414Z,28.04
2022-08-05T12:26:40.913Z,28.06
2022-08-05T12:29:22.890Z,28.04
2022-08-05T12:31:55.171Z,28.04
2022-08-05T12:34:25.726Z,28.04
2022-08-05T12:36:57.527Z,28.03
2022-08-05T12:39:27.969Z,28.04
2022-08-05T12:42:01.435Z,28.05
2022-08-05T12:44:33.893Z,28.07
2022-08-05T12:47:01.858Z,28.05
2022-08-05T12:50:03.389Z,28.05
2022-08-05T12:52:38.129Z,28.06
2022-08-05T12:55:22.494Z,28.06
2022-08-05T12:58:50.805Z,28.06
2022-08-05T13:01:59.711Z,28.06
2022-08-05T13:03:24.809Z,28.04
2022-08-05T13:05:59.301Z,28.03
2022-08-05T13:08:29.855Z,28.04
2022-08-05T13:11:04.775Z,28.03
2022-08-05T13:14:05.398Z,28.03
2022-08-05T13:16:19.599Z,28.02
2022-08-05T13:18:58.801Z,28.02
2022-08-05T13:21:28.396Z,28.03
2022-08-05T13:24:05.457Z,28.03
2022-08-05T13:26:32.088Z,28.03
2022-08-05T13:28:59.012Z,28.02
2022-08-05T13:32:02.872Z,28.03
2022-08-05T13:34:22.357Z,28.02
2022-08-05T13:36:53.205Z,28.01
2022-08-05T13:39:24.337Z,28.01
2022-08-05T13:42:06.951Z,28.01
2022-08-05T13:44:34.751Z,28.02
2022-08-05T13:47:08.608Z,28.01
2022-08-05T13:49:36.128Z,28.02
2022-08-05T13:52:16.259Z,28.01
2022-08-05T13:54:43.056Z,28.02
2022-08-05T13:57:20.168Z,28.03
2022-08-05T13:59:57.192Z,28.01
2022-08-05T14:02:26.708Z,28.04
2022-08-05T14:05:29.523Z,28.03
2022-08-05T14:08:08.724Z,28.03
2022-08-05T14:10:47.255Z,28.03
2022-08-05T14:13:15.525Z,28.03
2022-08-05T14:16:05.835Z,28.04
2022-08-05T14:18:28.980Z,28.03
2022-08-05T14:20:55.672Z,28.03
2022-08-05T14:23:25.748Z,28.03
2022-08-05T14:25:58.695Z,28.03
2022-08-05T14:28:27.945Z,28.04
2022-08-05T14:30:55.644Z,28.04
2022-08-05T14:33:23.975Z,28.05
2022-08-05T14:35:51.828Z,28.04
2022-08-05T14:38:32.557Z,28.05
2022-08-05T14:41:06.132Z,28.04
2022-08-05T14:43:59.272Z,28.06
2022-08-05T14:46:22.484Z,28.04
2022-08-05T14:48:55.369Z,28.04
2022-08-05T14:51:22.126Z,28.06
2022-08-05T14:54:06.641Z,28.04
2022-08-05T14:56:44.381Z,28.05
2022-08-05T14:59:14.085Z,28.04
2022-08-05T15:01:48.262Z,28.04
2022-08-05T15:04:16.113Z,28.05
2022-08-05T15:06:49.402Z,28.04
2022-08-05T15:09:16.700Z,28.04
2022-08-05T15:12:03.997Z,28.05
2022-08-05T15:14:36.037Z,28.05
2022-08-05T15:17:44.582Z,28.04
2022-08-05T15:19:56.382Z,28.05
2022-08-05T15:22:27.102Z,28.06
2022-08-05T15:24:54.904Z,28.07
2022-08-05T15:27:21.531Z,28.06
2022-08-05T15:29:52.133Z,28.06
2022-08-05T15:32:20.961Z,28.06
2022-08-05T15:34:54.281Z,28.06
2022-08-05T15:38:33.410Z,28.06
2022-08-05T15:41:00.569Z,28.06
2022-08-05T15:43:09.155Z,28.07
2022-08-05T15:45:45.807Z,28.08
2022-08-05T15:48:14.417Z,28.06
2022-08-05T15:50:43.645Z,28.07
2022-08-05T15:53:12.506Z,28.09
2022-08-05T15:56:01.852Z,28.08
2022-08-05T15:58:28.238Z,28.06
2022-08-05T16:01:11.834Z,28.07
2022-08-05T16:03:42.298Z,28.06
2022-08-05T16:06:11.505Z,28.08
2022-08-05T16:08:38.476Z,28.07
2022-08-05T16:11:05.214Z,28.06
2022-08-05T16:13:34.701Z,28.06
2022-08-05T16:16:05.030Z,28.07
2022-08-05T16:18:34.909Z,28.08
2022-08-05T16:21:18.589Z,28.07
2022-08-05T16:23:54.172Z,28.06
2022-08-05T16:26:26.641Z,28.07
2022-08-05T16:28:54.384Z,28.07
2022-08-05T16:31:21.229Z,28.07
2022-08-05T16:33:47.928Z,28.04
2022-08-05T16:36:14.781Z,28.06
2022-08-05T16:38:54.751Z,28.05
2022-08-05T16:42:12.491Z,28.04
2022-08-05T16:44:16.475Z,28.05
2022-08-05T16:46:55.361Z,28.06
2022-08-05T16:49:22.929Z,28.05
2022-08-05T16:51:50.940Z,28.04
2022-08-05T16:54:25.799Z,28.05
2022-08-05T16:56:55.459Z,28.05
2022-08-05T16:59:22.668Z,28.04
2022-08-05T17:01:53.506Z,28.05
2022-08-05T17:04:26.664Z,28.03
2022-08-05T17:06:55.401Z,28.05
2022-08-05T17:09:23.151Z,28.05
2022-08-05T17:11:54.696Z,28.05
2022-08-05T17:14:37.613Z,28.04
2022-08-05T17:17:06.176Z,28.04
2022-08-05T17:19:32.832Z,28.04
2022-08-05T17:22:00.888Z,28.04
2022-08-05T17:24:38.578Z,28.05
2022-08-05T17:27:07.222Z,28.04
2022-08-05T17:29:41.254Z,28.04
2022-08-05T17:32:11.240Z,28.03
2022-08-05T17:34:38.788Z,28.03
2022-08-05T17:37:29.375Z,28.03
2022-08-05T17:39:55.871Z,28.06
2022-08-05T17:42:27.012Z,28.04
2022-08-05T17:44:56.948Z,28.02
2022-08-05T17:47:23.796Z,28.03
2022-08-05T17:49:59.651Z,28.03
2022-08-05T17:52:30.523Z,28.03
2022-08-05T17:54:57.824Z,28.02
2022-08-05T17:57:24.681Z,28.03
2022-08-05T18:00:03.106Z,28.02
2022-08-05T18:02:30.566Z,28.03
2022-08-05T18:04:57.995Z,28.02
2022-08-05T18:07:25.442Z,28.03
2022-08-05T18:10:02.014Z,28.04
2022-08-05T18:12:36.411Z,28.03
2022-08-05T18:15:03.107Z,28.04
2022-08-05T18:18:01.415Z,28.03
2022-08-05T18:20:19.553Z,28.03
2022-08-05T18:22:57.315Z,28.02
2022-08-05T18:25:25.107Z,28.03
2022-08-05T18:27:52.802Z,28.02
2022-08-05T18:30:19.743Z,28.02
2022-08-05T18:32:53.123Z,28.02
2022-08-05T18:35:20.460Z,28.03
2022-08-05T18:38:07.567Z,28.03
2022-08-05T18:41:57.044Z,28.02
2022-08-05T18:43:23.948Z,28.01
2022-08-05T18:45:50.612Z,28.02
2022-08-05T18:48:31.272Z,28.02
2022-08-05T18:52:04.098Z,28.01
2022-08-05T18:54:06.647Z,28.03
2022-08-05T18:56:35.659Z,28.03
2022-08-05T18:59:41.786Z,28.02
2022-08-05T19:01:57.118Z,28.02
2022-08-05T19:04:25.332Z,28.02
2022-08-05T19:06:53.620Z,28.01
2022-08-05T19:09:21.173Z,28.02
2022-08-05T19:12:00.129Z,28.00
2022-08-05T19:14:37.780Z,28.02
2022-08-05T19:17:12.876Z,28.01
2022-08-05T19:19:46.508Z,28.01
2022-08-05T19:22:22.781Z,28.01
2022-08-05T19:25:00.322Z,28.02
2022-08-05T19:27:30.495Z,28.01
2022-08-05T19:29:57.722Z,28.01
2022-08-05T19:32:26.100Z,28.01
2022-08-05T19:34:55.858Z,28.00
2022-08-05T19:37:35.220Z,27.99
2022-08-05T19:40:10.963Z,28.01
2022-08-05T19:42:38.888Z,28.03
2022-08-05T19:45:07.168Z,28.01
2022-08-05T19:47:37.115Z,28.02
2022-08-05T19:50:04.856Z,28.01
2022-08-05T19:52:34.653Z,28.00
2022-08-05T19:55:08.894Z,28.00
2022-08-05T19:58:07.060Z,28.00
2022-08-05T20:00:36.506Z,27.99
2022-08-05T20:03:05.427Z,28.00
2022-08-05T20:05:49.804Z,28.00
2022-08-05T20:08:17.290Z,28.00
2022-08-05T20:10:43.895Z,28.00
2022-08-05T20:13:12.145Z,27.99
2022-08-05T20:15:52.219Z,28.00
2022-08-05T20:18:34.030Z,28.00
2022-08-05T20:21:04.775Z,28.00
2022-08-05T20:23:40.240Z,27.99
2022-08-05T20:26:17.717Z,27.99
2022-08-05T20:28:56.808Z,28.00
2022-08-05T20:31:36.943Z,28.00
2022-08-05T20:34:07.389Z,27.99
2022-08-05T20:36:35.235Z,27.99
2022-08-05T20:39:05.820Z,27.99
2022-08-05T20:41:44.606Z,28.00
2022-08-05T20:44:29.891Z,27.99
2022-08-05T20:47:01.416Z,27.99
2022-08-05T20:49:28.265Z,27.98
2022-08-05T20:51:58.446Z,28.00
2022-08-05T20:54:43.329Z,27.99
2022-08-05T20:57:14.406Z,27.99
2022-08-05T21:00:10.491Z,28.00
2022-08-05T21:02:27.872Z,27.99
2022-08-05T21:04:55.347Z,28.00
2022-08-05T21:07:24.007Z,27.99
2022-08-05T21:09:53.811Z,27.98
2022-08-05T21:12:21.046Z,27.99
2022-08-05T21:14:47.633Z,27.98
2022-08-05T21:17:14.332Z,27.97
2022-08-05T21:19:47.183Z,27.98
2022-08-05T21:22:21.641Z,27.97
2022-08-05T21:24:51.495Z,27.98
2022-08-05T21:27:20.525Z,27.97
2022-08-05T21:29:52.285Z,27.99
2022-08-05T21:32:20.898Z,27.98
2022-08-05T21:35:08.184Z,27.98
2022-08-05T21:37:41.239Z,27.97
2022-08-05T21:40:13.613Z,27.98
2022-08-05T21:42:44.412Z,27.96
2022-08-05T21:45:11.679Z,27.96
2022-08-05T21:47:56.054Z,27.97
2022-08-05T21:50:25.350Z,27.98
2022-08-05T21:52:52.064Z,27.98
2022-08-05T21:55:42.965Z,27.99
2022-08-05T21:58:06.330Z,28.00
2022-08-05T22:00:33.001Z,28.02
2022-08-05T22:03:00.610Z,28.02
2022-08-05T22:05:27.562Z,28.02
2022-08-05T22:08:01.998Z,28.04
2022-08-05T22:10:29.122Z,28.06
2022-08-05T22:12:57.507Z,28.06
2022-08-05T22:16:04.734Z,28.09
2022-08-05T22:18:12.851Z,28.08
2022-08-05T22:20:41.436Z,28.06
2022-08-05T22:24:01.854Z,28.07
2022-08-05T22:26:33.608Z,28.08
2022-08-05T22:29:00.325Z,28.06
2022-08-05T22:31:29.925Z,28.07
2022-08-05T22:34:01.082Z,28.06
2022-08-05T22:36:28.365Z,28.06
2022-08-05T22:38:55.848Z,28.06
2022-08-05T22:42:04.200Z,28.05
2022-08-05T22:44:10.227Z,28.05
2022-08-05T22:46:40.047Z,28.04
2022-08-05T22:49:23.620Z,28.03
2022-08-05T22:52:04.479Z,28.03
2022-08-05T22:54:35.014Z,28.04
2022-08-05T22:57:01.676Z,28.03
2022-08-05T22:59:45.400Z,28.02
2022-08-05T23:02:17.628Z,28.02
2022-08-05T23:04:52.269Z,27.99
2022-08-05T23:07:22.426Z,28.00
2022-08-05T23:09:57.198Z,27.98
2022-08-05T23:12:25.441Z,27.99
2022-08-05T23:14:55.377Z,27.97
2022-08-05T23:17:32.625Z,27.97
2022-08-05T23:20:02.355Z,27.98
2022-08-05T23:22:29.358Z,27.96
2022-08-05T23:24:57.544Z,27.98
2022-08-05T23:27:24.374Z,27.97
2022-08-05T23:29:58.200Z,27.97
2022-08-05T23:32:26.931Z,27.98
2022-08-05T23:34:53.915Z,27.97
2022-08-05T23:37:20.519Z,27.99
2022-08-05T23:39:53.527Z,27.97
2022-08-05T23:42:23.480Z,27.97
2022-08-05T23:44:56.389Z,27.97
2022-08-05T23:47:26.319Z,27.98
2022-08-05T23:49:55.705Z,27.97
2022-08-05T23:52:26.575Z,27.95
2022-08-05T23:54:57.269Z,27.96
2022-08-05T23:57:24.601Z,27.94
